createdAt,value
2017-12-20T00:01:21.933Z,6.10
2017-12-20T00:03:51.346Z,6.00
2017-12-20T00:06:20.829Z,6.10
2017-12-20T00:08:51.405Z,6.10
2017-12-20T00:11:20.890Z,6.10
2017-12-20T00:13:50.376Z,6.10
2017-12-20T00:16:19.972Z,6.10
2017-12-20T00:18:50.223Z,6.10
2017-12-20T00:21:19.713Z,6.00
2017-12-20T00:23:49.596Z,6.10
2017-12-20T00:26:19.843Z,6.10
2017-12-20T00:28:49.733Z,6.10
2017-12-20T00:31:19.453Z,6.10
2017-12-20T00:33:48.414Z,6.10
2017-12-20T00:36:17.688Z,6.10
2017-12-20T00:38:46.657Z,6.10
2017-12-20T00:41:15.628Z,6.10
2017-12-20T00:43:46.184Z,6.10
2017-12-20T00:46:15.673Z,6.10
2017-12-20T00:48:45.144Z,6.10
2017-12-20T00:51:15.689Z,6.10
2017-12-20T00:53:45.168Z,6.10
2017-12-20T00:56:15.766Z,6.10
2017-12-20T00:58:45.252Z,6.10
2017-12-20T01:01:14.741Z,6.10
2017-12-20T01:03:44.528Z,6.10
2017-12-20T01:06:14.456Z,6.10
2017-12-20T01:08:43.294Z,6.10
2017-12-20T01:11:14.392Z,6.10
2017-12-20T01:13:43.868Z,6.10
2017-12-20T01:16:14.454Z,6.10
2017-12-20T01:18:43.934Z,6.10
2017-12-20T01:21:13.430Z,6.10
2017-12-20T01:23:43.517Z,6.10
2017-12-20T01:26:13.769Z,6.10
2017-12-20T01:28:43.568Z,6.10
2017-12-20T01:31:13.057Z,6.10
2017-12-20T01:33:43.677Z,6.10
2017-12-20T01:36:14.129Z,6.10
2017-12-20T01:38:44.016Z,6.10
2017-12-20T01:41:13.609Z,6.10
2017-12-20T01:44:01.572Z,6.00
2017-12-20T01:46:36.598Z,6.10
2017-12-20T01:49:06.988Z,6.10
2017-12-20T01:51:36.469Z,6.10
2017-12-20T01:54:05.011Z,6.10
2017-12-20T01:56:33.956Z,6.10
2017-12-20T01:59:02.796Z,6.10
2017-12-20T02:01:32.293Z,6.10
2017-12-20T02:04:01.800Z,6.10
2017-12-20T02:06:31.287Z,6.10
2017-12-20T02:09:01.549Z,6.00
2017-12-20T02:11:30.449Z,6.00
2017-12-20T02:13:59.800Z,6.00
2017-12-20T02:16:30.106Z,6.00
2017-12-20T02:18:59.578Z,6.00
2017-12-20T02:21:28.415Z,6.00
2017-12-20T02:23:57.313Z,6.00
2017-12-20T02:26:26.471Z,6.00
2017-12-20T02:28:55.299Z,6.00
2017-12-20T02:31:24.456Z,6.00
2017-12-20T02:33:53.605Z,6.00
2017-12-20T02:36:22.134Z,6.10
2017-12-20T02:38:51.103Z,6.10
2017-12-20T02:41:19.927Z,6.10
2017-12-20T02:43:49.510Z,6.10
2017-12-20T02:46:18.829Z,6.10
2017-12-20T02:48:47.365Z,6.00
2017-12-20T02:51:16.175Z,6.00
2017-12-20T02:53:45.800Z,6.00
2017-12-20T02:56:15.403Z,6.00
2017-12-20T02:58:44.202Z,6.00
2017-12-20T03:01:13.010Z,6.00
2017-12-20T03:03:41.550Z,6.00
2017-12-20T03:06:10.367Z,5.90
2017-12-20T03:08:39.384Z,5.90
2017-12-20T03:11:08.191Z,5.90
2017-12-20T03:13:36.722Z,5.90
2017-12-20T03:16:05.587Z,5.90
2017-12-20T03:18:35.062Z,5.90
2017-12-20T03:21:04.215Z,5.90
2017-12-20T03:23:33.510Z,5.90
2017-12-20T03:26:02.655Z,5.90
2017-12-20T03:28:32.150Z,5.90
2017-12-20T03:31:01.867Z,5.90
2017-12-20T03:33:32.030Z,5.90
2017-12-20T03:36:01.164Z,5.90
2017-12-20T03:38:30.307Z,5.90
2017-12-20T03:41:00.229Z,5.90
2017-12-20T03:43:30.622Z,5.90
2017-12-20T03:46:00.094Z,5.90
2017-12-20T03:48:29.572Z,5.90
2017-12-20T03:50:58.735Z,6.00
2017-12-20T03:53:27.546Z,5.90
2017-12-20T03:56:14.589Z,5.90
2017-12-20T03:58:52.005Z,6.00
2017-12-20T04:01:21.690Z,5.90
2017-12-20T04:04:08.090Z,5.90
2017-12-20T04:07:00.354Z,5.90
2017-12-20T04:09:29.507Z,5.90
2017-12-20T04:12:00.055Z,5.90
2017-12-20T04:14:29.503Z,5.90
2017-12-20T04:16:59.754Z,5.90
2017-12-20T04:19:29.051Z,5.90
2017-12-20T04:21:58.519Z,5.90
2017-12-20T04:24:28.434Z,5.90
2017-12-20T04:26:58.951Z,6.00
2017-12-20T04:29:28.430Z,5.90
2017-12-20T04:31:57.912Z,6.00
2017-12-20T04:34:27.531Z,6.00
2017-12-20T04:36:57.002Z,5.90
2017-12-20T04:39:26.486Z,5.90
2017-12-20T04:41:57.019Z,5.90
2017-12-20T04:44:27.255Z,5.90
2017-12-20T04:46:56.759Z,5.90
2017-12-20T04:49:26.630Z,5.90
2017-12-20T04:51:56.107Z,5.90
2017-12-20T04:54:25.583Z,5.90
2017-12-20T04:56:55.346Z,5.90
2017-12-20T04:59:24.834Z,5.90
2017-12-20T05:01:54.321Z,5.90
2017-12-20T05:04:24.371Z,5.90
2017-12-20T05:06:54.054Z,5.90
2017-12-20T05:09:23.538Z,5.90
2017-12-20T05:11:53.390Z,5.90
2017-12-20T05:14:22.874Z,5.90
2017-12-20T05:16:52.369Z,5.90
2017-12-20T05:19:22.210Z,5.90
2017-12-20T05:21:52.443Z,5.90
2017-12-20T05:24:22.705Z,5.90
2017-12-20T05:26:52.171Z,5.90
2017-12-20T05:29:21.661Z,5.90
2017-12-20T05:31:52.080Z,5.90
2017-12-20T05:34:21.550Z,5.90
2017-12-20T05:36:51.019Z,5.90
2017-12-20T05:39:20.798Z,5.90
2017-12-20T05:41:50.258Z,5.90
2017-12-20T05:44:19.734Z,5.90
2017-12-20T05:46:49.370Z,6.00
2017-12-20T05:49:18.838Z,6.00
2017-12-20T05:51:48.336Z,6.00
2017-12-20T05:54:18.955Z,6.00
2017-12-20T05:56:49.186Z,6.00
2017-12-20T05:59:18.681Z,6.00
2017-12-20T06:01:49.255Z,6.10
2017-12-20T06:04:18.722Z,6.10
2017-12-20T06:06:48.201Z,6.10
2017-12-20T06:09:18.030Z,6.10
2017-12-20T06:11:47.514Z,6.10
2017-12-20T06:14:17.756Z,6.10
2017-12-20T06:16:47.552Z,6.10
2017-12-20T06:19:17.791Z,6.20
2017-12-20T06:21:47.594Z,6.20
2017-12-20T06:24:17.082Z,6.20
2017-12-20T06:26:47.806Z,6.20
2017-12-20T06:29:18.076Z,6.20
2017-12-20T06:31:47.939Z,6.10
2017-12-20T06:34:17.414Z,6.10
2017-12-20T06:36:46.904Z,6.10
2017-12-20T06:39:16.759Z,6.10
2017-12-20T06:41:46.223Z,6.20
2017-12-20T06:44:15.712Z,6.20
2017-12-20T06:46:45.490Z,6.20
2017-12-20T06:49:14.979Z,6.20
2017-12-20T06:51:45.510Z,6.20
2017-12-20T06:54:15.750Z,6.20
2017-12-20T06:56:45.546Z,6.20
2017-12-20T06:59:15.787Z,6.10
2017-12-20T07:01:45.582Z,6.10
2017-12-20T07:04:16.035Z,6.10
2017-12-20T07:06:46.023Z,6.10
2017-12-20T07:09:15.499Z,6.10
2017-12-20T07:11:44.982Z,6.10
2017-12-20T07:14:14.477Z,6.10
2017-12-20T07:16:43.947Z,6.10
2017-12-20T07:19:13.423Z,6.10
2017-12-20T07:21:43.947Z,6.10
2017-12-20T07:24:14.195Z,6.10
2017-12-20T07:26:43.685Z,6.10
2017-12-20T07:29:13.178Z,6.10
2017-12-20T07:31:43.429Z,6.10
2017-12-20T07:34:12.912Z,6.10
2017-12-20T07:36:42.402Z,6.10
2017-12-20T07:39:12.511Z,6.10
2017-12-20T07:41:41.982Z,6.10
2017-12-20T07:44:11.470Z,6.10
2017-12-20T07:46:40.943Z,6.10
2017-12-20T07:49:10.424Z,6.20
2017-12-20T07:51:40.679Z,6.20
2017-12-20T07:54:10.166Z,6.20
2017-12-20T07:56:40.071Z,6.20
2017-12-20T07:59:10.339Z,6.20
2017-12-20T08:01:39.846Z,6.20
2017-12-20T08:04:09.355Z,6.20
2017-12-20T08:06:39.032Z,6.30
2017-12-20T08:09:08.514Z,6.30
2017-12-20T08:11:38.762Z,6.40
2017-12-20T08:14:08.263Z,6.40
2017-12-20T08:16:38.214Z,6.40
2017-12-20T08:19:07.701Z,6.40
2017-12-20T08:21:38.493Z,6.40
2017-12-20T08:24:07.978Z,6.40
2017-12-20T08:26:37.583Z,6.50
2017-12-20T08:29:07.058Z,6.50
2017-12-20T08:31:39.152Z,6.60
2017-12-20T08:34:08.704Z,6.60
2017-12-20T08:36:38.161Z,6.60
2017-12-20T08:39:08.411Z,6.70
2017-12-20T08:41:37.895Z,6.60
2017-12-20T08:44:08.144Z,6.70
2017-12-20T08:46:37.659Z,6.70
2017-12-20T08:49:07.151Z,6.70
2017-12-20T08:51:36.635Z,6.80
2017-12-20T08:54:06.523Z,6.80
2017-12-20T08:56:35.987Z,6.80
2017-12-20T08:59:05.490Z,6.90
2017-12-20T09:01:35.587Z,6.80
2017-12-20T09:04:06.001Z,6.80
2017-12-20T09:06:35.487Z,6.80
2017-12-20T09:09:05.082Z,6.90
2017-12-20T09:11:34.562Z,6.80
2017-12-20T09:14:03.712Z,6.80
2017-12-20T09:16:32.927Z,6.90
2017-12-20T09:19:02.416Z,6.90
2017-12-20T09:21:32.090Z,6.90
2017-12-20T09:24:02.603Z,7.00
2017-12-20T09:26:32.079Z,7.00
2017-12-20T09:29:01.551Z,7.00
2017-12-20T09:31:31.133Z,7.00
2017-12-20T09:34:01.384Z,7.00
2017-12-20T09:36:30.866Z,7.00
2017-12-20T09:39:00.394Z,7.00
2017-12-20T09:41:30.063Z,7.00
2017-12-20T09:44:00.681Z,7.00
2017-12-20T09:46:30.138Z,7.00
2017-12-20T09:48:59.623Z,7.00
2017-12-20T09:51:29.244Z,7.00
2017-12-20T09:53:58.731Z,7.10
2017-12-20T09:56:28.200Z,7.10
2017-12-20T09:58:58.231Z,7.10
2017-12-20T10:01:29.459Z,7.10
2017-12-20T10:03:59.850Z,7.10
2017-12-20T10:06:29.328Z,7.10
2017-12-20T10:08:58.808Z,7.10
2017-12-20T10:11:28.447Z,7.20
2017-12-20T10:13:57.924Z,7.20
2017-12-20T10:16:27.094Z,7.20
2017-12-20T10:18:57.830Z,7.20
2017-12-20T10:21:27.791Z,7.20
2017-12-20T10:23:58.271Z,7.20
2017-12-20T10:26:28.188Z,7.30
2017-12-20T10:28:58.436Z,7.30
2017-12-20T10:31:27.928Z,7.30
2017-12-20T10:33:57.414Z,7.30
2017-12-20T10:36:27.326Z,7.30
2017-12-20T10:38:57.580Z,7.30
2017-12-20T10:41:27.076Z,7.30
2017-12-20T10:43:56.215Z,7.30
2017-12-20T10:46:25.706Z,7.30
2017-12-20T10:48:55.228Z,7.30
2017-12-20T10:51:24.955Z,7.30
2017-12-20T10:53:54.877Z,7.40
2017-12-20T10:56:25.151Z,7.40
2017-12-20T10:58:54.647Z,7.40
2017-12-20T11:01:24.554Z,7.50
2017-12-20T11:03:54.271Z,7.50
2017-12-20T11:06:23.712Z,7.50
2017-12-20T11:08:54.281Z,7.50
2017-12-20T11:11:23.763Z,7.50
2017-12-20T11:13:53.247Z,7.50
2017-12-20T11:16:23.870Z,7.50
2017-12-20T11:18:54.119Z,7.50
2017-12-20T11:21:22.983Z,7.50
2017-12-20T11:23:52.182Z,7.50
2017-12-20T11:26:21.378Z,7.60
2017-12-20T11:28:51.668Z,7.60
2017-12-20T11:31:20.815Z,7.60
2017-12-20T11:33:50.294Z,7.60
2017-12-20T11:36:19.870Z,7.60
2017-12-20T11:38:49.343Z,7.60
2017-12-20T11:41:18.835Z,7.60
2017-12-20T11:43:48.467Z,7.50
2017-12-20T11:46:17.936Z,7.50
2017-12-20T11:48:47.420Z,7.50
2017-12-20T11:51:17.834Z,7.50
2017-12-20T11:53:47.318Z,7.50
2017-12-20T11:56:16.798Z,7.40
2017-12-20T11:58:46.429Z,7.40
2017-12-20T12:01:15.246Z,7.50
2017-12-20T12:03:44.176Z,7.50
2017-12-20T12:06:15.989Z,7.60
2017-12-20T12:08:46.221Z,7.60
2017-12-20T12:11:15.414Z,7.70
2017-12-20T12:13:46.022Z,7.70
2017-12-20T12:16:15.170Z,7.70
2017-12-20T12:18:44.648Z,7.70
2017-12-20T12:21:14.439Z,7.70
2017-12-20T12:23:44.676Z,7.70
2017-12-20T12:26:14.611Z,7.70
2017-12-20T12:28:43.766Z,7.70
2017-12-20T12:31:12.914Z,7.80
2017-12-20T12:33:41.833Z,7.80
2017-12-20T12:36:11.310Z,7.80
2017-12-20T12:38:40.788Z,7.80
2017-12-20T12:41:10.687Z,7.90
2017-12-20T12:43:40.915Z,7.90
2017-12-20T12:46:10.074Z,7.90
2017-12-20T12:48:39.238Z,7.90
2017-12-20T12:51:08.706Z,8.00
2017-12-20T12:53:37.871Z,8.00
2017-12-20T12:56:07.532Z,8.10
2017-12-20T12:58:36.699Z,8.10
2017-12-20T13:01:06.532Z,8.10
2017-12-20T13:03:35.664Z,8.20
2017-12-20T13:06:05.147Z,8.30
2017-12-20T13:08:34.998Z,8.30
2017-12-20T13:11:05.011Z,8.30
2017-12-20T13:13:34.515Z,8.30
2017-12-20T13:16:04.931Z,8.20
2017-12-20T13:18:34.411Z,8.20
2017-12-20T13:21:03.600Z,8.20
2017-12-20T13:23:33.452Z,8.20
2017-12-20T13:26:03.712Z,8.20
2017-12-20T13:28:33.198Z,8.20
2017-12-20T13:31:02.687Z,8.20
2017-12-20T13:33:32.953Z,8.10
2017-12-20T13:36:02.851Z,8.10
2017-12-20T13:38:32.967Z,8.10
2017-12-20T13:41:02.439Z,8.10
2017-12-20T13:43:32.830Z,8.10
2017-12-20T13:46:02.310Z,8.10
2017-12-20T13:48:31.459Z,8.10
2017-12-20T13:51:01.863Z,8.10
2017-12-20T13:53:31.342Z,8.10
2017-12-20T13:56:00.834Z,8.10
2017-12-20T13:58:30.278Z,8.10
2017-12-20T14:00:59.855Z,8.10
2017-12-20T14:03:29.055Z,8.10
2017-12-20T14:05:58.867Z,8.00
2017-12-20T14:08:28.011Z,8.10
2017-12-20T14:10:57.159Z,8.00
2017-12-20T14:13:27.094Z,8.00
2017-12-20T14:15:57.350Z,8.00
2017-12-20T14:18:27.000Z,8.00
2017-12-20T14:20:56.668Z,8.00
2017-12-20T14:23:26.150Z,8.00
2017-12-20T14:25:56.556Z,7.90
2017-12-20T14:28:26.022Z,7.90
2017-12-20T14:30:55.503Z,7.90
2017-12-20T14:33:25.371Z,7.90
2017-12-20T14:35:54.846Z,7.90
2017-12-20T14:38:24.354Z,7.90
2017-12-20T14:40:53.989Z,7.80
2017-12-20T14:43:23.455Z,7.80
2017-12-20T14:45:52.953Z,7.90
2017-12-20T14:48:22.814Z,7.90
2017-12-20T14:50:52.363Z,7.80
2017-12-20T14:53:21.479Z,7.80
2017-12-20T14:55:50.602Z,7.80
2017-12-20T14:58:20.510Z,7.80
2017-12-20T15:00:50.283Z,7.80
2017-12-20T15:03:19.490Z,7.80
2017-12-20T15:05:48.963Z,7.80
2017-12-20T15:08:19.151Z,7.80
2017-12-20T15:10:48.761Z,7.80
2017-12-20T15:13:17.905Z,7.70
2017-12-20T15:15:47.212Z,7.80
2017-12-20T15:18:17.205Z,7.70
2017-12-20T15:20:46.362Z,7.70
2017-12-20T15:23:16.053Z,7.70
2017-12-20T15:25:45.186Z,7.70
2017-12-20T15:28:13.998Z,7.70
2017-12-20T15:30:44.059Z,7.70
2017-12-20T15:33:13.988Z,7.70
2017-12-20T15:35:43.191Z,7.70
2017-12-20T15:38:12.825Z,7.70
2017-12-20T15:40:41.681Z,7.70
2017-12-20T15:43:11.263Z,7.70
2017-12-20T15:45:41.648Z,7.60
2017-12-20T15:48:10.795Z,7.60
2017-12-20T15:50:41.412Z,7.60
2017-12-20T15:53:11.655Z,7.60
2017-12-20T15:55:41.287Z,7.60
2017-12-20T15:58:10.778Z,7.60
2017-12-20T16:00:39.939Z,7.60
2017-12-20T16:03:08.754Z,7.60
2017-12-20T16:05:37.900Z,7.60
2017-12-20T16:08:07.375Z,7.60
2017-12-20T16:10:37.007Z,7.60
2017-12-20T16:13:06.491Z,7.60
2017-12-20T16:15:35.975Z,7.60
2017-12-20T16:18:05.290Z,7.60
2017-12-20T16:20:34.767Z,7.60
2017-12-20T16:23:04.254Z,7.70
2017-12-20T16:25:34.647Z,7.70
2017-12-20T16:28:03.472Z,7.70
2017-12-20T16:30:32.292Z,7.70
2017-12-20T16:33:01.532Z,7.70
2017-12-20T16:35:30.354Z,7.80
2017-12-20T16:37:59.828Z,7.70
2017-12-20T16:40:29.896Z,7.80
2017-12-20T16:42:58.980Z,7.70
2017-12-20T16:45:27.785Z,7.80
2017-12-20T16:47:57.630Z,7.80
2017-12-20T16:50:27.547Z,7.80
2017-12-20T16:52:57.963Z,7.80
2017-12-20T16:55:28.214Z,7.80
2017-12-20T16:57:57.699Z,7.80
2017-12-20T17:00:26.592Z,7.80
2017-12-20T17:02:55.791Z,7.80
2017-12-20T17:05:24.994Z,7.80
2017-12-20T17:07:54.479Z,7.80
2017-12-20T17:10:24.715Z,7.80
2017-12-20T17:12:54.381Z,7.70
2017-12-20T17:15:23.862Z,7.80
2017-12-20T17:17:53.347Z,7.80
2017-12-20T17:20:22.805Z,7.80
2017-12-20T17:22:53.056Z,7.80
2017-12-20T17:25:22.728Z,7.70
2017-12-20T17:27:52.223Z,7.80
2017-12-20T17:30:21.738Z,7.70
2017-12-20T17:32:52.134Z,7.80
2017-12-20T17:35:21.282Z,7.70
2017-12-20T17:37:50.451Z,7.80
2017-12-20T17:40:20.246Z,7.80
2017-12-20T17:42:49.728Z,7.80
2017-12-20T17:45:19.208Z,7.80
2017-12-20T17:47:48.681Z,7.80
2017-12-20T17:50:20.591Z,7.80
2017-12-20T17:52:50.234Z,7.80
2017-12-20T17:55:19.729Z,7.80
2017-12-20T17:57:48.884Z,7.80
2017-12-20T18:00:17.853Z,7.90
2017-12-20T18:02:47.000Z,7.80
2017-12-20T18:05:16.494Z,7.90
2017-12-20T18:07:45.986Z,7.80
2017-12-20T18:10:18.779Z,7.80
2017-12-20T18:12:48.626Z,7.80
2017-12-20T18:15:18.875Z,7.80
2017-12-20T18:17:48.370Z,7.80
2017-12-20T18:20:17.250Z,7.80
2017-12-20T18:22:46.839Z,7.90
2017-12-20T18:25:17.258Z,7.90
2017-12-20T18:27:47.514Z,7.80
2017-12-20T18:30:17.395Z,7.80
2017-12-20T18:32:47.653Z,7.80
2017-12-20T18:35:16.634Z,7.80
2017-12-20T18:37:46.522Z,7.80
2017-12-20T18:40:16.434Z,7.80
2017-12-20T18:42:47.062Z,7.80
2017-12-20T18:45:17.314Z,7.80
2017-12-20T18:47:46.951Z,7.80
2017-12-20T18:50:16.866Z,7.90
2017-12-20T18:52:46.434Z,7.90
2017-12-20T18:55:16.218Z,7.90
2017-12-20T18:57:46.462Z,7.90
2017-12-20T19:00:15.308Z,7.90
2017-12-20T19:02:44.926Z,7.90
2017-12-20T19:05:15.001Z,7.90
2017-12-20T19:07:44.146Z,7.90
2017-12-20T19:10:14.458Z,7.90
2017-12-20T19:12:43.302Z,7.90
2017-12-20T19:15:13.728Z,8.00
2017-12-20T19:17:43.278Z,7.90
2017-12-20T19:20:13.514Z,8.00
2017-12-20T19:22:43.914Z,7.90
2017-12-20T19:25:13.055Z,7.90
2017-12-20T19:27:42.246Z,8.00
2017-12-20T19:30:11.894Z,7.90
2017-12-20T19:32:41.387Z,8.00
2017-12-20T19:35:10.876Z,7.90
2017-12-20T19:37:41.043Z,8.00
2017-12-20T19:40:10.303Z,7.90
2017-12-20T19:42:39.750Z,8.00
2017-12-20T19:45:10.375Z,8.00
2017-12-20T19:47:40.622Z,8.00
2017-12-20T19:50:10.464Z,7.90
2017-12-20T19:52:39.630Z,8.00
2017-12-20T19:55:09.106Z,8.00
2017-12-20T19:57:40.189Z,8.00
2017-12-20T20:00:10.418Z,8.00
2017-12-20T20:02:40.305Z,8.00
2017-12-20T20:05:10.530Z,8.00
2017-12-20T20:07:40.520Z,8.00
2017-12-20T20:10:10.767Z,8.10
2017-12-20T20:12:40.260Z,8.00
2017-12-20T20:15:09.969Z,8.10
2017-12-20T20:17:40.371Z,8.10
2017-12-20T20:20:10.615Z,8.10
2017-12-20T20:22:40.430Z,8.00
2017-12-20T20:25:10.663Z,8.10
2017-12-20T20:27:40.402Z,8.00
2017-12-20T20:30:09.891Z,8.10
2017-12-20T20:32:39.382Z,8.10
2017-12-20T20:35:09.255Z,8.10
2017-12-20T20:37:40.062Z,8.10
2017-12-20T20:40:09.898Z,8.00
2017-12-20T20:42:40.171Z,8.10
2017-12-20T20:45:10.347Z,8.00
2017-12-20T20:47:40.614Z,8.10
2017-12-20T20:50:10.462Z,8.00
2017-12-20T20:52:39.934Z,8.00
2017-12-20T20:55:09.439Z,8.10
2017-12-20T20:57:39.175Z,8.10
2017-12-20T21:00:08.659Z,8.00
2017-12-20T21:02:38.633Z,8.00
2017-12-20T21:05:08.406Z,8.00
2017-12-20T21:07:38.927Z,8.00
2017-12-20T21:10:09.450Z,8.00
2017-12-20T21:12:38.928Z,8.00
2017-12-20T21:15:08.415Z,8.00
2017-12-20T21:17:38.195Z,8.00
2017-12-20T21:20:08.003Z,8.00
2017-12-20T21:22:37.510Z,8.00
2017-12-20T21:25:07.302Z,8.00
2017-12-20T21:27:37.546Z,8.00
2017-12-20T21:30:06.708Z,8.00
2017-12-20T21:32:36.235Z,8.00
2017-12-20T21:35:06.492Z,8.00
2017-12-20T21:37:36.352Z,8.00
2017-12-20T21:40:06.728Z,8.00
2017-12-20T21:42:36.213Z,8.00
2017-12-20T21:45:05.688Z,8.10
2017-12-20T21:47:35.652Z,8.10
2017-12-20T21:50:05.571Z,8.00
2017-12-20T21:52:34.713Z,8.00
2017-12-20T21:55:04.286Z,8.00
2017-12-20T21:57:34.119Z,8.00
2017-12-20T22:00:03.270Z,8.00
2017-12-20T22:02:32.479Z,8.10
2017-12-20T22:05:02.236Z,8.10
2017-12-20T22:07:32.476Z,8.10
2017-12-20T22:10:01.998Z,8.00
2017-12-20T22:12:30.923Z,8.00
2017-12-20T22:15:00.368Z,8.10
2017-12-20T22:17:30.251Z,8.10
2017-12-20T22:20:00.494Z,8.10
2017-12-20T22:22:30.159Z,8.00
2017-12-20T22:25:01.210Z,8.00
2017-12-20T22:27:31.319Z,8.00
2017-12-20T22:30:01.071Z,8.00
2017-12-20T22:32:30.242Z,8.00
2017-12-20T22:35:00.648Z,8.10
2017-12-20T22:37:30.113Z,8.00
2017-12-20T22:39:59.589Z,8.10
2017-12-20T22:42:29.215Z,8.00
2017-12-20T22:44:58.685Z,8.00
2017-12-20T22:47:29.308Z,8.10
2017-12-20T22:49:59.542Z,8.10
2017-12-20T22:52:29.182Z,8.10
2017-12-20T22:54:58.672Z,8.10
2017-12-20T22:57:28.142Z,8.10
2017-12-20T22:59:58.720Z,8.10
2017-12-20T23:02:28.206Z,8.00
2017-12-20T23:04:57.678Z,8.00
2017-12-20T23:07:28.068Z,8.00
2017-12-20T23:09:57.604Z,8.00
2017-12-20T23:12:28.002Z,8.00
2017-12-20T23:14:57.578Z,8.00
2017-12-20T23:17:27.059Z,8.00
2017-12-20T23:19:56.691Z,8.00
2017-12-20T23:22:25.821Z,8.00
2017-12-20T23:24:55.313Z,7.90
2017-12-20T23:27:24.830Z,7.90
2017-12-20T23:29:54.309Z,7.90
2017-12-20T23:32:23.935Z,7.90
2017-12-20T23:34:53.406Z,7.90
2017-12-20T23:37:22.887Z,7.80
2017-12-20T23:39:52.756Z,7.80
2017-12-20T23:42:22.230Z,7.80
2017-12-20T23:44:51.423Z,7.80
2017-12-20T23:47:21.049Z,7.80
2017-12-20T23:49:50.518Z,7.90
2017-12-20T23:52:19.991Z,7.80
2017-12-20T23:54:49.374Z,7.80
2017-12-20T23:57:18.846Z,7.80
2017-12-20T23:59:48.334Z,7.90
